Terminal Aerodrome Forecast
Issued by NWS Duluth, MN

Home | Current Version | Previous Version | Text Only | Print | Product List | Glossary On
Versions: 1 2 3 4 5 6 7 8 9 10 11 12 13 14 15 16 17 18 19 20 21 22 23 24 25 26 27 28 29 30 31
000
FTUS43 KDLH 261900 AAA
TAFDLH
TAF AMD
KDLH 261902Z 2619/2718 34009KT P6SM -SN SCT018 BKN100
     FM262000 35007KT P6SM -SN BKN023
     FM270200 33007KT P6SM SKC=

USA.gov is the U.S. government's official web portal to all federal, state and local government web resources and services.